createdAt,value
2022-10-11T00:00:36.206Z,57.93
2022-10-11T00:03:03.296Z,58.54
2022-10-11T00:05:30.372Z,58.88
2022-10-11T00:07:57.126Z,58.86
2022-10-11T00:10:24.652Z,58.62
2022-10-11T00:12:52.598Z,59.80
2022-10-11T00:15:21.240Z,59.36
2022-10-11T00:17:48.156Z,58.76
2022-10-11T00:20:15.045Z,58.36
2022-10-11T00:22:41.936Z,58.71
2022-10-11T00:25:09.778Z,58.82
2022-10-11T00:27:36.782Z,58.28
2022-10-11T00:30:04.414Z,58.80
2022-10-11T00:32:32.631Z,58.31
2022-10-11T00:35:04.608Z,57.66
2022-10-11T00:37:35.062Z,58.02
2022-10-11T00:40:01.852Z,58.07
2022-10-11T00:42:28.668Z,57.45
2022-10-11T00:45:19.463Z,57.93
2022-10-11T00:47:46.179Z,58.09
2022-10-11T00:50:22.309Z,58.75
2022-10-11T00:52:56.132Z,58.91
2022-10-11T00:55:23.249Z,57.27
2022-10-11T00:57:50.057Z,57.63
2022-10-11T01:00:16.808Z,57.73
2022-10-11T01:02:43.906Z,57.16
2022-10-11T01:05:28.664Z,58.17
2022-10-11T01:07:56.565Z,58.11
2022-10-11T01:10:23.276Z,58.55
2022-10-11T01:13:10.306Z,58.18
2022-10-11T01:15:39.972Z,57.26
2022-10-11T01:18:08.596Z,57.63
2022-10-11T01:20:44.559Z,57.02
2022-10-11T01:23:31.814Z,56.99
2022-10-11T01:26:02.091Z,57.26
2022-10-11T01:28:29.602Z,57.87
2022-10-11T01:30:57.319Z,58.18
2022-10-11T01:33:44.318Z,58.26
2022-10-11T01:36:17.134Z,58.15
2022-10-11T01:38:48.003Z,57.76
2022-10-11T01:41:19.972Z,58.59
2022-10-11T01:43:46.851Z,58.20
2022-10-11T01:46:13.621Z,58.05
2022-10-11T01:48:54.050Z,58.70
2022-10-11T01:51:24.778Z,59.44
2022-10-11T01:54:10.888Z,58.75
2022-10-11T01:56:37.644Z,59.00
2022-10-11T01:59:23.610Z,59.17
2022-10-11T02:02:02.770Z,58.02
2022-10-11T02:04:33.834Z,57.77
2022-10-11T02:07:07.626Z,57.96
2022-10-11T02:09:37.948Z,58.20
2022-10-11T02:12:10.329Z,57.49
2022-10-11T02:14:39.041Z,57.95
2022-10-11T02:17:10.593Z,58.41
2022-10-11T02:19:38.932Z,57.35
2022-10-11T02:22:06.613Z,57.92
2022-10-11T02:24:36.882Z,57.72
2022-10-11T02:27:04.577Z,59.12
2022-10-11T02:29:32.280Z,58.95
2022-10-11T02:31:58.997Z,59.06
2022-10-11T02:34:34.166Z,58.86
2022-10-11T02:37:03.628Z,57.69
2022-10-11T02:39:45.683Z,58.33
2022-10-11T02:42:17.791Z,58.48
2022-10-11T02:44:46.797Z,57.75
2022-10-11T02:47:13.654Z,59.17
2022-10-11T02:49:40.515Z,58.56
2022-10-11T02:52:07.656Z,58.19
2022-10-11T02:54:34.863Z,58.88
2022-10-11T02:57:01.582Z,58.73
2022-10-11T02:59:29.125Z,58.71
2022-10-11T03:01:55.954Z,58.09
2022-10-11T03:04:22.922Z,58.31
2022-10-11T03:06:50.548Z,58.68
2022-10-11T03:09:17.536Z,59.61
2022-10-11T03:11:44.243Z,59.40
2022-10-11T03:14:11.907Z,59.45
2022-10-11T03:16:38.697Z,59.18
2022-10-11T03:19:05.611Z,58.85
2022-10-11T03:21:32.673Z,58.99
2022-10-11T03:23:59.413Z,58.81
2022-10-11T03:26:27.199Z,58.52
2022-10-11T03:28:54.855Z,59.74
2022-10-11T03:31:23.733Z,59.41
2022-10-11T03:33:50.678Z,59.63
2022-10-11T03:36:17.689Z,60.01
2022-10-11T03:38:44.488Z,59.48
2022-10-11T03:41:11.220Z,58.56
2022-10-11T03:43:38.399Z,59.31
2022-10-11T03:46:05.466Z,60.24
2022-10-11T03:48:32.832Z,59.36
2022-10-11T03:50:59.834Z,59.74
2022-10-11T03:53:26.630Z,59.34
2022-10-11T03:55:54.330Z,58.57
2022-10-11T03:58:23.129Z,58.39
2022-10-11T04:00:50.171Z,59.53
2022-10-11T04:03:17.174Z,60.48
2022-10-11T04:05:43.947Z,60.41
2022-10-11T04:08:28.799Z,59.52
2022-10-11T04:10:55.850Z,59.86
2022-10-11T04:13:22.634Z,60.25
2022-10-11T04:15:49.361Z,60.41
2022-10-11T04:18:16.362Z,60.81
2022-10-11T04:20:43.104Z,61.12
2022-10-11T04:23:09.876Z,60.68
2022-10-11T04:25:38.215Z,61.54
2022-10-11T04:28:05.057Z,59.81
2022-10-11T04:30:31.854Z,60.28
2022-10-11T04:32:58.872Z,59.64
2022-10-11T04:35:25.762Z,59.94
2022-10-11T04:37:52.493Z,59.88
2022-10-11T04:40:19.695Z,59.64
2022-10-11T04:42:46.530Z,58.76
2022-10-11T04:45:13.279Z,59.86
2022-10-11T04:47:41.171Z,60.17
2022-10-11T04:50:08.109Z,59.79
2022-10-11T04:52:34.918Z,60.26
2022-10-11T04:55:02.075Z,60.54
2022-10-11T04:57:28.837Z,59.94
2022-10-11T04:59:55.644Z,59.51
2022-10-11T05:02:24.108Z,60.72
2022-10-11T05:04:51.205Z,59.84
2022-10-11T05:07:17.966Z,60.24
2022-10-11T05:09:44.965Z,60.63
2022-10-11T05:12:11.781Z,60.93
2022-10-11T05:14:38.632Z,60.08
2022-10-11T05:17:06.442Z,60.51
2022-10-11T05:19:33.192Z,59.75
2022-10-11T05:21:59.963Z,60.93
2022-10-11T05:24:27.044Z,60.83
2022-10-11T05:26:53.885Z,61.79
2022-10-11T05:29:20.839Z,60.64
2022-10-11T05:31:47.856Z,61.17
2022-10-11T05:34:14.752Z,61.08
2022-10-11T05:36:41.498Z,60.83
2022-10-11T05:39:08.795Z,61.05
2022-10-11T05:41:35.681Z,61.13
2022-10-11T05:44:02.770Z,60.16
2022-10-11T05:46:29.812Z,60.24
2022-10-11T05:48:56.713Z,60.06
2022-10-11T05:51:23.516Z,59.35
2022-10-11T05:53:50.542Z,60.50
2022-10-11T05:56:19.239Z,60.96
2022-10-11T05:58:46.280Z,61.84
2022-10-11T06:01:22.376Z,61.13
2022-10-11T06:03:49.707Z,60.98
2022-10-11T06:06:16.611Z,61.96
2022-10-11T06:08:43.781Z,61.87
2022-10-11T06:11:12.153Z,62.75
2022-10-11T06:13:39.318Z,62.27
2022-10-11T06:16:06.868Z,61.66
2022-10-11T06:18:34.505Z,60.72
2022-10-11T06:21:01.315Z,60.53
2022-10-11T06:23:28.301Z,61.58
2022-10-11T06:26:09.324Z,62.00
2022-10-11T06:28:37.234Z,60.87
2022-10-11T06:31:05.245Z,61.26
2022-10-11T06:33:32.287Z,60.89
2022-10-11T06:35:59.922Z,60.90
2022-10-11T06:38:27.289Z,61.59
2022-10-11T06:40:54.030Z,60.96
2022-10-11T06:43:20.831Z,60.21
2022-10-11T06:45:47.849Z,59.96
2022-10-11T06:48:14.615Z,59.64
2022-10-11T06:50:59.075Z,59.14
2022-10-11T06:53:27.527Z,59.33
2022-10-11T06:55:54.286Z,58.75
2022-10-11T06:58:21.037Z,59.36
2022-10-11T07:00:48.425Z,59.10
2022-10-11T07:03:16.231Z,58.27
2022-10-11T07:05:43.021Z,57.11
2022-10-11T07:08:10.299Z,57.24
2022-10-11T07:10:37.145Z,56.98
2022-10-11T07:13:03.905Z,56.06
2022-10-11T07:15:31.012Z,56.05
2022-10-11T07:17:58.170Z,55.51
2022-10-11T07:20:25.035Z,56.67
2022-10-11T07:22:52.061Z,56.43
2022-10-11T07:25:19.003Z,55.86
2022-10-11T07:27:45.728Z,55.23
2022-10-11T07:30:12.855Z,54.85
2022-10-11T07:32:39.706Z,55.49
2022-10-11T07:35:06.694Z,55.40
2022-10-11T07:37:34.014Z,55.42
2022-10-11T07:40:00.770Z,56.33
2022-10-11T07:42:27.519Z,55.96
2022-10-11T07:44:54.570Z,55.96
2022-10-11T07:47:21.331Z,55.99
2022-10-11T07:49:48.292Z,56.29
2022-10-11T07:52:15.274Z,56.14
2022-10-11T07:54:42.213Z,55.88
2022-10-11T07:57:08.937Z,54.52
2022-10-11T07:59:36.088Z,54.55
2022-10-11T08:02:02.942Z,54.83
2022-10-11T08:04:30.158Z,55.25
2022-10-11T08:06:56.908Z,54.83
2022-10-11T08:09:23.656Z,54.54
2022-10-11T08:11:50.674Z,53.75
2022-10-11T08:14:18.343Z,53.80
2022-10-11T08:16:45.089Z,52.13
2022-10-11T08:19:12.349Z,52.11
2022-10-11T08:21:39.121Z,52.52
2022-10-11T08:24:06.314Z,52.60
2022-10-11T08:26:33.729Z,54.05
2022-10-11T08:29:04.585Z,52.25
2022-10-11T08:31:31.527Z,51.23
2022-10-11T08:33:58.574Z,51.76
2022-10-11T08:36:25.356Z,51.95
2022-10-11T08:38:52.264Z,50.98
2022-10-11T08:41:37.337Z,51.22
2022-10-11T08:44:09.131Z,51.87
2022-10-11T08:46:37.979Z,50.15
2022-10-11T08:49:05.458Z,48.73
2022-10-11T08:51:39.992Z,48.83
2022-10-11T08:54:11.126Z,51.14
2022-10-11T08:56:39.888Z,48.52
2022-10-11T08:59:12.368Z,48.13
2022-10-11T09:01:43.000Z,49.91
2022-10-11T09:04:16.078Z,49.20
2022-10-11T09:06:47.277Z,48.98
2022-10-11T09:09:24.402Z,48.32
2022-10-11T09:12:05.530Z,46.36
2022-10-11T09:14:53.813Z,48.21
2022-10-11T09:17:26.696Z,47.82
2022-10-11T09:20:16.684Z,47.11
2022-10-11T09:22:52.760Z,47.58
2022-10-11T09:25:27.221Z,47.80
2022-10-11T09:28:03.319Z,47.45
2022-10-11T09:30:30.345Z,47.83
2022-10-11T09:33:03.911Z,45.54
2022-10-11T09:35:32.545Z,45.29
2022-10-11T09:38:00.445Z,46.53
2022-10-11T09:40:35.263Z,46.32
2022-10-11T09:43:02.213Z,46.78
2022-10-11T09:45:28.873Z,46.36
2022-10-11T09:47:56.351Z,45.87
2022-10-11T09:50:25.771Z,44.81
2022-10-11T09:52:53.489Z,45.56
2022-10-11T09:55:36.917Z,44.98
2022-10-11T09:58:04.900Z,44.27
2022-10-11T10:00:33.826Z,43.31
2022-10-11T10:03:02.648Z,43.29
2022-10-11T10:05:29.304Z,43.60
2022-10-11T10:08:11.230Z,43.34
2022-10-11T10:10:39.435Z,42.03
2022-10-11T10:13:07.181Z,41.60
2022-10-11T10:15:34.938Z,42.74
2022-10-11T10:18:02.093Z,42.68
2022-10-11T10:20:31.766Z,42.32
2022-10-11T10:22:59.805Z,43.06
2022-10-11T10:25:33.252Z,42.37
2022-10-11T10:28:01.282Z,42.50
2022-10-11T10:30:33.054Z,43.04
2022-10-11T10:33:06.233Z,42.69
2022-10-11T10:35:33.343Z,41.62
2022-10-11T10:38:05.815Z,43.20
2022-10-11T10:40:43.168Z,43.50
2022-10-11T10:43:15.666Z,41.99
2022-10-11T10:46:03.511Z,43.40
2022-10-11T10:49:23.569Z,43.80
2022-10-11T10:51:38.970Z,44.97
2022-10-11T10:54:13.898Z,44.34
2022-10-11T10:56:44.111Z,43.50
2022-10-11T10:59:31.452Z,42.82
2022-10-11T11:02:06.762Z,43.39
2022-10-11T11:04:44.661Z,43.02
2022-10-11T11:07:32.936Z,42.48
2022-10-11T11:10:12.583Z,42.01
2022-10-11T11:12:57.486Z,40.73
2022-10-11T11:15:32.493Z,42.23
2022-10-11T11:18:21.202Z,41.50
2022-10-11T11:21:07.065Z,41.82
2022-10-11T11:23:51.845Z,42.61
2022-10-11T11:26:21.996Z,41.68
2022-10-11T11:28:57.991Z,41.72
2022-10-11T11:31:29.579Z,40.92
2022-10-11T11:34:15.172Z,41.56
2022-10-11T11:36:58.662Z,42.37
2022-10-11T11:39:26.353Z,40.73
2022-10-11T11:41:54.111Z,41.33
2022-10-11T11:44:27.161Z,40.87
2022-10-11T11:47:01.807Z,40.29
2022-10-11T11:49:31.152Z,40.13
2022-10-11T11:51:58.170Z,39.92
2022-10-11T11:54:43.959Z,40.13
2022-10-11T11:57:29.769Z,41.02
2022-10-11T12:00:25.988Z,40.39
2022-10-11T12:02:52.910Z,41.45
2022-10-11T12:05:25.228Z,40.80
2022-10-11T12:07:53.883Z,40.41
2022-10-11T12:10:25.143Z,42.50
2022-10-11T12:13:10.781Z,41.79
2022-10-11T12:15:37.754Z,41.10
2022-10-11T12:18:05.889Z,43.20
2022-10-11T12:20:33.436Z,43.32
2022-10-11T12:23:01.424Z,43.24
2022-10-11T12:25:33.235Z,43.01
2022-10-11T12:28:01.335Z,42.22
2022-10-11T12:30:50.896Z,41.65
2022-10-11T12:33:22.292Z,41.68
2022-10-11T12:35:55.386Z,41.13
2022-10-11T12:38:22.405Z,41.11
2022-10-11T12:40:54.363Z,42.55
2022-10-11T12:43:29.018Z,41.00
2022-10-11T12:45:55.985Z,41.33
2022-10-11T12:48:31.900Z,39.83
2022-10-11T12:51:03.799Z,40.27
2022-10-11T12:53:50.616Z,41.51
2022-10-11T12:57:03.312Z,42.49
2022-10-11T12:59:30.415Z,42.02
2022-10-11T13:02:00.016Z,43.78
2022-10-11T13:04:29.245Z,42.96
2022-10-11T13:07:06.606Z,42.20
2022-10-11T13:09:39.210Z,42.96
2022-10-11T13:12:07.605Z,42.94
2022-10-11T13:14:36.996Z,44.43
2022-10-11T13:17:03.969Z,44.92
2022-10-11T13:19:33.398Z,44.98
2022-10-11T13:22:02.465Z,44.15
2022-10-11T13:24:37.014Z,44.81
2022-10-11T13:27:04.843Z,45.48
2022-10-11T13:29:40.037Z,45.79
2022-10-11T13:32:14.055Z,45.85
2022-10-11T13:34:40.911Z,47.06
2022-10-11T13:37:08.828Z,46.39
2022-10-11T13:39:36.649Z,45.59
2022-10-11T13:42:10.859Z,45.46
2022-10-11T13:44:42.315Z,45.22
2022-10-11T13:47:19.094Z,43.54
2022-10-11T13:49:47.658Z,43.38
2022-10-11T13:52:26.077Z,44.19
2022-10-11T13:54:55.302Z,44.46
2022-10-11T13:57:22.874Z,45.28
2022-10-11T13:59:49.565Z,45.90
2022-10-11T14:02:18.453Z,47.04
2022-10-11T14:04:49.058Z,46.87
2022-10-11T14:07:25.879Z,46.99
2022-10-11T14:09:53.312Z,47.08
2022-10-11T14:12:25.885Z,47.12
2022-10-11T14:14:52.859Z,47.09
2022-10-11T14:17:20.493Z,46.70
2022-10-11T14:19:47.817Z,47.21
2022-10-11T14:22:15.817Z,46.67
2022-10-11T14:24:43.148Z,46.70
2022-10-11T14:27:11.542Z,46.70
2022-10-11T14:29:41.932Z,46.92
2022-10-11T14:32:10.935Z,47.36
2022-10-11T14:34:37.866Z,46.52
2022-10-11T14:37:04.560Z,46.47
2022-10-11T14:39:31.876Z,46.06
2022-10-11T14:41:58.942Z,47.02
2022-10-11T14:44:25.587Z,46.83
2022-10-11T14:46:54.301Z,46.88
2022-10-11T14:49:22.692Z,47.27
2022-10-11T14:51:50.013Z,47.52
2022-10-11T14:54:18.927Z,48.38
2022-10-11T14:56:46.041Z,48.49
2022-10-11T14:59:13.926Z,49.13
2022-10-11T15:01:40.747Z,49.70
2022-10-11T15:04:07.933Z,49.62
2022-10-11T15:06:36.788Z,49.77
2022-10-11T15:09:05.834Z,50.19
2022-10-11T15:11:32.956Z,50.84
2022-10-11T15:14:01.027Z,50.90
2022-10-11T15:16:27.832Z,51.52
2022-10-11T15:18:54.793Z,52.92
2022-10-11T15:21:22.710Z,53.12
2022-10-11T15:23:49.996Z,52.58
2022-10-11T15:26:18.628Z,52.53
2022-10-11T15:28:45.742Z,52.81
2022-10-11T15:31:12.559Z,53.00
2022-10-11T15:33:39.714Z,52.60
2022-10-11T15:36:07.395Z,52.77
2022-10-11T15:38:35.204Z,53.31
2022-10-11T15:41:02.230Z,52.16
2022-10-11T15:43:29.028Z,51.86
2022-10-11T15:45:55.940Z,52.00
2022-10-11T15:48:23.927Z,52.31
2022-10-11T15:50:50.857Z,52.56
2022-10-11T15:53:21.792Z,52.79
2022-10-11T15:55:49.999Z,53.70
2022-10-11T15:58:25.090Z,53.81
2022-10-11T16:00:55.431Z,54.20
2022-10-11T16:03:26.105Z,54.32
2022-10-11T16:05:53.154Z,54.17
2022-10-11T16:08:19.934Z,54.27
2022-10-11T16:10:47.632Z,53.44
2022-10-11T16:13:14.374Z,53.28
2022-10-11T16:15:43.113Z,53.44
2022-10-11T16:18:10.771Z,53.51
2022-10-11T16:20:38.601Z,53.93
2022-10-11T16:23:05.531Z,54.36
2022-10-11T16:25:32.550Z,54.27
2022-10-11T16:27:59.262Z,54.30
2022-10-11T16:30:26.651Z,54.31
2022-10-11T16:32:53.700Z,54.76
2022-10-11T16:35:23.512Z,54.32
2022-10-11T16:37:53.620Z,54.10
2022-10-11T16:40:22.427Z,54.80
2022-10-11T16:42:49.131Z,54.72
2022-10-11T16:45:16.313Z,55.17
2022-10-11T16:47:43.620Z,55.37
2022-10-11T16:50:10.484Z,56.10
2022-10-11T16:52:37.169Z,56.04
2022-10-11T16:55:04.372Z,56.21
2022-10-11T16:57:31.028Z,55.95
2022-10-11T17:00:02.141Z,55.64
2022-10-11T17:02:33.060Z,56.12
2022-10-11T17:04:59.879Z,55.78
2022-10-11T17:07:28.007Z,56.11
2022-10-11T17:09:56.203Z,57.21
2022-10-11T17:12:23.884Z,56.83
2022-10-11T17:14:51.551Z,56.32
2022-10-11T17:17:41.684Z,56.68
2022-10-11T17:20:37.723Z,56.34
2022-10-11T17:23:15.391Z,56.86
2022-10-11T17:25:51.290Z,56.89
2022-10-11T17:28:22.585Z,57.16
2022-10-11T17:30:56.502Z,58.09
2022-10-11T17:33:23.996Z,57.61
2022-10-11T17:35:51.036Z,57.94
2022-10-11T17:38:19.830Z,57.27
2022-10-11T17:40:47.479Z,57.16
2022-10-11T17:43:15.785Z,57.33
2022-10-11T17:45:42.792Z,57.85
2022-10-11T17:48:09.944Z,57.86
2022-10-11T17:50:39.888Z,58.23
2022-10-11T17:53:06.881Z,57.89
2022-10-11T17:55:34.265Z,57.88
2022-10-11T17:58:01.140Z,58.46
2022-10-11T18:00:29.716Z,58.65
2022-10-11T18:02:57.398Z,58.13
2022-10-11T18:05:24.567Z,57.05
2022-10-11T18:07:52.830Z,57.36
2022-10-11T18:10:20.062Z,57.20
2022-10-11T18:12:47.222Z,57.23
2022-10-11T18:15:14.089Z,58.39
2022-10-11T18:17:41.076Z,58.00
2022-10-11T18:20:08.501Z,58.15
2022-10-11T18:22:35.294Z,57.99
2022-10-11T18:25:02.360Z,57.99
2022-10-11T18:27:29.289Z,58.81
2022-10-11T18:29:56.326Z,59.04
2022-10-11T18:32:23.646Z,59.85
2022-10-11T18:34:50.683Z,59.15
2022-10-11T18:37:17.405Z,58.98
2022-10-11T18:39:44.384Z,58.26
2022-10-11T18:42:12.518Z,57.78
2022-10-11T18:44:39.565Z,57.84
2022-10-11T18:47:06.661Z,57.76
2022-10-11T18:49:33.428Z,57.55
2022-10-11T18:52:00.181Z,58.47
2022-10-11T18:54:27.879Z,58.88
2022-10-11T18:56:54.767Z,58.61
2022-10-11T18:59:21.624Z,57.97
2022-10-11T19:01:52.047Z,57.90
2022-10-11T19:04:19.509Z,58.06
2022-10-11T19:06:48.242Z,57.97
2022-10-11T19:09:21.882Z,57.87
2022-10-11T19:11:53.049Z,58.39
2022-10-11T19:14:22.601Z,58.26
2022-10-11T19:16:55.333Z,58.30
2022-10-11T19:19:26.553Z,57.59
2022-10-11T19:21:53.927Z,57.47
2022-10-11T19:24:27.309Z,57.62
2022-10-11T19:27:02.350Z,57.57
2022-10-11T19:29:30.978Z,58.37
2022-10-11T19:32:03.679Z,59.22
2022-10-11T19:34:35.511Z,58.43
2022-10-11T19:37:15.861Z,57.63
2022-10-11T19:39:44.242Z,57.37
2022-10-11T19:42:16.826Z,57.59
2022-10-11T19:44:46.674Z,58.92
2022-10-11T19:47:16.975Z,58.32
2022-10-11T19:49:43.721Z,58.30
2022-10-11T19:52:10.512Z,58.32
2022-10-11T19:54:43.345Z,58.74
2022-10-11T19:57:17.872Z,58.18
2022-10-11T19:59:46.528Z,58.56
2022-10-11T20:02:15.018Z,59.26
2022-10-11T20:04:57.492Z,58.77
2022-10-11T20:07:26.314Z,57.97
2022-10-11T20:09:55.941Z,57.81
2022-10-11T20:12:29.576Z,57.39
2022-10-11T20:14:56.706Z,57.07
2022-10-11T20:17:43.345Z,57.54
2022-10-11T20:20:15.477Z,57.95
2022-10-11T20:22:42.184Z,57.24
2022-10-11T20:25:08.948Z,56.79
2022-10-11T20:27:38.545Z,56.99
2022-10-11T20:30:05.515Z,56.57
2022-10-11T20:32:34.204Z,56.55
2022-10-11T20:35:02.272Z,56.61
2022-10-11T20:37:28.961Z,55.97
2022-10-11T20:39:55.596Z,56.20
2022-10-11T20:42:25.298Z,56.75
2022-10-11T20:44:54.275Z,56.72
2022-10-11T20:47:20.944Z,56.11
2022-10-11T20:49:47.980Z,57.23
2022-10-11T20:52:14.633Z,57.45
2022-10-11T20:54:41.684Z,57.48
2022-10-11T20:57:08.655Z,57.56
2022-10-11T20:59:35.746Z,57.85
2022-10-11T21:02:02.454Z,58.49
2022-10-11T21:04:29.617Z,58.46
2022-10-11T21:06:56.445Z,58.15
2022-10-11T21:09:23.206Z,57.93
2022-10-11T21:11:50.107Z,57.55
2022-10-11T21:14:17.273Z,58.21
2022-10-11T21:16:43.941Z,58.46
2022-10-11T21:19:12.340Z,57.86
2022-10-11T21:21:39.074Z,57.95
2022-10-11T21:24:06.465Z,57.22
2022-10-11T21:26:35.226Z,57.97
2022-10-11T21:29:04.069Z,57.26
2022-10-11T21:31:34.143Z,57.56
2022-10-11T21:34:02.161Z,57.74
2022-10-11T21:36:28.889Z,57.64
2022-10-11T21:38:56.163Z,57.88
2022-10-11T21:41:25.459Z,59.02
2022-10-11T21:43:52.201Z,57.90
2022-10-11T21:46:19.925Z,58.55
2022-10-11T21:48:47.294Z,58.55
2022-10-11T21:53:46.505Z,58.15
2022-10-11T21:56:13.460Z,58.39
2022-10-11T21:58:40.147Z,59.50
2022-10-11T22:01:06.914Z,59.39
2022-10-11T22:03:34.267Z,60.43
2022-10-11T22:06:04.057Z,59.32
2022-10-11T22:08:31.166Z,59.34
2022-10-11T22:10:59.080Z,58.58
2022-10-11T22:13:26.224Z,58.31
2022-10-11T22:15:53.029Z,58.26
2022-10-11T22:18:20.388Z,58.62
2022-10-11T22:20:47.124Z,58.35
2022-10-11T22:23:14.237Z,58.84
2022-10-11T22:25:41.337Z,59.46
2022-10-11T22:28:08.414Z,58.55
2022-10-11T22:30:35.199Z,57.84
2022-10-11T22:33:02.670Z,58.56
2022-10-11T22:35:31.391Z,58.91
2022-10-11T22:38:00.300Z,59.40
2022-10-11T22:40:27.504Z,58.76
2022-10-11T22:42:54.151Z,59.74
2022-10-11T22:45:20.808Z,59.05
2022-10-11T22:47:47.910Z,58.98
2022-10-11T22:50:14.628Z,58.39
2022-10-11T22:52:41.376Z,58.34
2022-10-11T22:55:08.827Z,58.34
2022-10-11T22:57:35.647Z,58.46
2022-10-11T23:00:04.041Z,58.01
2022-10-11T23:02:30.992Z,58.87
2022-10-11T23:04:58.358Z,58.55
2022-10-11T23:07:24.996Z,58.70
2022-10-11T23:09:51.946Z,58.73
2022-10-11T23:12:18.626Z,59.40
2022-10-11T23:14:45.281Z,58.75
2022-10-11T23:17:12.271Z,59.34
2022-10-11T23:19:38.947Z,59.50
2022-10-11T23:22:05.713Z,59.60
2022-10-11T23:24:32.664Z,59.55
2022-10-11T23:26:59.573Z,58.73
2022-10-11T23:29:26.259Z,58.59
2022-10-11T23:31:53.298Z,59.29
2022-10-11T23:34:21.059Z,59.11
2022-10-11T23:36:47.704Z,59.46
2022-10-11T23:39:16.221Z,59.75
2022-10-11T23:41:43.637Z,58.92
2022-10-11T23:44:10.624Z,59.78
2022-10-11T23:46:37.554Z,59.80
2022-10-11T23:49:04.320Z,60.13
2022-10-11T23:51:33.618Z,59.79
2022-10-11T23:54:00.537Z,59.50
2022-10-11T23:56:27.210Z,59.37
2022-10-11T23:58:53.929Z,59.65
